sensor_id;sensor_type;location;lat;lon;timestamp;P1;durP1;ratioP1;P2;durP2;ratioP2
51810;SDS011;52468;40.116;18.296;2022-11-20T00:01:34;24.77;;;8.13;;
51810;SDS011;52468;40.116;18.296;2022-11-20T00:04:02;22.83;;;6.23;;
51810;SDS011;52468;40.116;18.296;2022-11-20T00:06:30;28.30;;;5.87;;
51810;SDS011;52468;40.116;18.296;2022-11-20T00:08:59;31.10;;;8.00;;
51810;SDS011;52468;40.116;18.296;2022-11-20T00:11:29;24.97;;;8.40;;
51810;SDS011;52468;40.116;18.296;2022-11-20T00:13:58;33.27;;;8.27;;
51810;SDS011;52468;40.116;18.296;2022-11-20T00:16:28;31.60;;;7.13;;
51810;SDS011;52468;40.116;18.296;2022-11-20T00:18:58;29.73;;;9.63;;
51810;SDS011;52468;40.116;18.296;2022-11-20T00:21:26;23.73;;;7.83;;
51810;SDS011;52468;40.116;18.296;2022-11-20T00:23:56;20.20;;;8.17;;
51810;SDS011;52468;40.116;18.296;2022-11-20T00:26:25;26.60;;;9.27;;
51810;SDS011;52468;40.116;18.296;2022-11-20T00:28:55;33.37;;;10.17;;
51810;SDS011;52468;40.116;18.296;2022-11-20T00:31:24;24.37;;;8.00;;
51810;SDS011;52468;40.116;18.296;2022-11-20T00:33:53;32.23;;;8.10;;
51810;SDS011;52468;40.116;18.296;2022-11-20T00:36:22;31.43;;;9.40;;
51810;SDS011;52468;40.116;18.296;2022-11-20T00:38:57;27.20;;;7.20;;
51810;SDS011;52468;40.116;18.296;2022-11-20T00:41:26;32.03;;;7.93;;
51810;SDS011;52468;40.116;18.296;2022-11-20T00:43:56;21.30;;;8.30;;
51810;SDS011;52468;40.116;18.296;2022-11-20T00:46:25;31.60;;;6.67;;
51810;SDS011;52468;40.116;18.296;2022-11-20T00:48:54;22.47;;;6.33;;
51810;SDS011;52468;40.116;18.296;2022-11-20T00:51:23;21.83;;;7.43;;
51810;SDS011;52468;40.116;18.296;2022-11-20T00:53:54;17.43;;;6.73;;
51810;SDS011;52468;40.116;18.296;2022-11-20T00:56:23;20.40;;;6.83;;
51810;SDS011;52468;40.116;18.296;2022-11-20T00:58:51;28.17;;;7.23;;
51810;SDS011;52468;40.116;18.296;2022-11-20T01:01:23;41.17;;;8.90;;
51810;SDS011;52468;40.116;18.296;2022-11-20T01:03:53;26.67;;;9.83;;
51810;SDS011;52468;40.116;18.296;2022-11-20T01:06:26;29.90;;;8.50;;
51810;SDS011;52468;40.116;18.296;2022-11-20T01:09:01;34.67;;;9.17;;
51810;SDS011;52468;40.116;18.296;2022-11-20T01:11:38;22.17;;;6.57;;
51810;SDS011;52468;40.116;18.296;2022-11-20T01:14:14;32.20;;;8.77;;
51810;SDS011;52468;40.116;18.296;2022-11-20T01:16:48;24.13;;;6.10;;
51810;SDS011;52468;40.116;18.296;2022-11-20T01:19:18;38.30;;;8.65;;
51810;SDS011;52468;40.116;18.296;2022-11-20T01:21:49;34.60;;;8.30;;
51810;SDS011;52468;40.116;18.296;2022-11-20T03:07:51;31.63;;;8.83;;
51810;SDS011;52468;40.116;18.296;2022-11-20T03:10:19;38.73;;;10.07;;
51810;SDS011;52468;40.116;18.296;2022-11-20T03:12:47;35.80;;;9.63;;
51810;SDS011;52468;40.116;18.296;2022-11-20T03:15:19;38.50;;;10.70;;
51810;SDS011;52468;40.116;18.296;2022-11-20T03:17:47;43.53;;;9.73;;
51810;SDS011;52468;40.116;18.296;2022-11-20T03:20:15;24.63;;;6.53;;
51810;SDS011;52468;40.116;18.296;2022-11-20T03:22:43;7.30;;;2.53;;
51810;SDS011;52468;40.116;18.296;2022-11-20T03:25:10;8.30;;;2.50;;
51810;SDS011;52468;40.116;18.296;2022-11-20T03:27:38;6.17;;;3.37;;
51810;SDS011;52468;40.116;18.296;2022-11-20T03:30:06;7.70;;;2.20;;
51810;SDS011;52468;40.116;18.296;2022-11-20T03:32:35;2.67;;;1.83;;
51810;SDS011;52468;40.116;18.296;2022-11-20T03:35:02;4.43;;;2.00;;
51810;SDS011;52468;40.116;18.296;2022-11-20T03:37:31;7.90;;;1.53;;
51810;SDS011;52468;40.116;18.296;2022-11-20T03:39:59;5.10;;;1.63;;
51810;SDS011;52468;40.116;18.296;2022-11-20T03:42:27;8.17;;;2.17;;
51810;SDS011;52468;40.116;18.296;2022-11-20T03:45:16;4.63;;;2.20;;
51810;SDS011;52468;40.116;18.296;2022-11-20T03:47:45;4.17;;;2.40;;
51810;SDS011;52468;40.116;18.296;2022-11-20T03:50:13;5.27;;;2.40;;
51810;SDS011;52468;40.116;18.296;2022-11-20T03:52:41;8.00;;;2.40;;
51810;SDS011;52468;40.116;18.296;2022-11-20T03:55:09;5.47;;;2.57;;
51810;SDS011;52468;40.116;18.296;2022-11-20T03:57:37;8.27;;;3.10;;
51810;SDS011;52468;40.116;18.296;2022-11-20T04:00:05;8.93;;;2.57;;
51810;SDS011;52468;40.116;18.296;2022-11-20T04:02:33;5.30;;;2.33;;
51810;SDS011;52468;40.116;18.296;2022-11-20T04:05:01;8.33;;;2.60;;
51810;SDS011;52468;40.116;18.296;2022-11-20T04:07:29;9.17;;;2.70;;
51810;SDS011;52468;40.116;18.296;2022-11-20T04:09:56;8.53;;;3.63;;
51810;SDS011;52468;40.116;18.296;2022-11-20T04:12:24;11.20;;;3.87;;
51810;SDS011;52468;40.116;18.296;2022-11-20T04:14:52;5.60;;;2.40;;
51810;SDS011;52468;40.116;18.296;2022-11-20T04:17:20;6.67;;;3.80;;
51810;SDS011;52468;40.116;18.296;2022-11-20T04:19:48;8.23;;;3.60;;
51810;SDS011;52468;40.116;18.296;2022-11-20T04:22:16;15.87;;;3.67;;
51810;SDS011;52468;40.116;18.296;2022-11-20T04:24:43;10.33;;;5.13;;
51810;SDS011;52468;40.116;18.296;2022-11-20T04:27:11;14.73;;;5.17;;
51810;SDS011;52468;40.116;18.296;2022-11-20T04:29:39;21.07;;;8.53;;
51810;SDS011;52468;40.116;18.296;2022-11-20T04:32:07;25.30;;;8.50;;
51810;SDS011;52468;40.116;18.296;2022-11-20T04:34:35;30.07;;;9.33;;
51810;SDS011;52468;40.116;18.296;2022-11-20T04:37:03;25.90;;;9.70;;
51810;SDS011;52468;40.116;18.296;2022-11-20T04:39:31;40.90;;;12.63;;
51810;SDS011;52468;40.116;18.296;2022-11-20T04:41:59;32.70;;;10.57;;
51810;SDS011;52468;40.116;18.296;2022-11-20T04:44:46;29.23;;;12.10;;
51810;SDS011;52468;40.116;18.296;2022-11-20T04:47:13;39.93;;;13.50;;
51810;SDS011;52468;40.116;18.296;2022-11-20T04:49:41;31.13;;;10.53;;
51810;SDS011;52468;40.116;18.296;2022-11-20T04:52:09;30.40;;;9.67;;
51810;SDS011;52468;40.116;18.296;2022-11-20T04:54:37;34.00;;;9.90;;
51810;SDS011;52468;40.116;18.296;2022-11-20T04:57:04;22.20;;;9.27;;
51810;SDS011;52468;40.116;18.296;2022-11-20T04:59:34;23.67;;;9.13;;
51810;SDS011;52468;40.116;18.296;2022-11-20T05:02:02;31.17;;;8.90;;
51810;SDS011;52468;40.116;18.296;2022-11-20T05:04:30;38.27;;;9.67;;
51810;SDS011;52468;40.116;18.296;2022-11-20T05:06:58;30.87;;;10.13;;
51810;SDS011;52468;40.116;18.296;2022-11-20T05:09:26;29.67;;;9.90;;
51810;SDS011;52468;40.116;18.296;2022-11-20T05:11:53;23.87;;;10.17;;
51810;SDS011;52468;40.116;18.296;2022-11-20T05:14:21;23.27;;;8.77;;
51810;SDS011;52468;40.116;18.296;2022-11-20T05:16:49;28.40;;;8.20;;
51810;SDS011;52468;40.116;18.296;2022-11-20T05:19:17;32.80;;;9.03;;
51810;SDS011;52468;40.116;18.296;2022-11-20T05:21:45;23.37;;;8.43;;
51810;SDS011;52468;40.116;18.296;2022-11-20T05:24:13;26.27;;;9.03;;
51810;SDS011;52468;40.116;18.296;2022-11-20T05:26:41;20.47;;;7.70;;
51810;SDS011;52468;40.116;18.296;2022-11-20T05:29:09;32.10;;;8.80;;
51810;SDS011;52468;40.116;18.296;2022-11-20T05:31:41;29.83;;;9.23;;
51810;SDS011;52468;40.116;18.296;2022-11-20T05:34:09;29.27;;;8.50;;
51810;SDS011;52468;40.116;18.296;2022-11-20T05:36:37;18.00;;;7.63;;
51810;SDS011;52468;40.116;18.296;2022-11-20T05:39:05;19.63;;;8.07;;
51810;SDS011;52468;40.116;18.296;2022-11-20T05:41:32;17.23;;;7.07;;
51810;SDS011;52468;40.116;18.296;2022-11-20T05:44:00;24.10;;;8.07;;
51810;SDS011;52468;40.116;18.296;2022-11-20T05:46:28;24.20;;;6.97;;
51810;SDS011;52468;40.116;18.296;2022-11-20T05:48:57;26.40;;;7.03;;
51810;SDS011;52468;40.116;18.296;2022-11-20T05:51:25;30.77;;;8.07;;
51810;SDS011;52468;40.116;18.296;2022-11-20T05:53:57;21.57;;;7.93;;
51810;SDS011;52468;40.116;18.296;2022-11-20T05:56:25;24.60;;;7.43;;
51810;SDS011;52468;40.116;18.296;2022-11-20T05:58:53;27.50;;;7.87;;
51810;SDS011;52468;40.116;18.296;2022-11-20T06:01:21;15.63;;;7.23;;
51810;SDS011;52468;40.116;18.296;2022-11-20T06:03:52;18.47;;;8.30;;
51810;SDS011;52468;40.116;18.296;2022-11-20T06:06:20;12.47;;;5.33;;
51810;SDS011;52468;40.116;18.296;2022-11-20T06:08:48;22.57;;;7.40;;
51810;SDS011;52468;40.116;18.296;2022-11-20T06:11:16;17.33;;;6.20;;
51810;SDS011;52468;40.116;18.296;2022-11-20T06:13:44;28.03;;;8.97;;
51810;SDS011;52468;40.116;18.296;2022-11-20T06:16:14;15.73;;;7.10;;
51810;SDS011;52468;40.116;18.296;2022-11-20T06:18:42;18.30;;;7.10;;
51810;SDS011;52468;40.116;18.296;2022-11-20T06:21:12;15.30;;;7.30;;
51810;SDS011;52468;40.116;18.296;2022-11-20T06:23:42;18.90;;;6.10;;
51810;SDS011;52468;40.116;18.296;2022-11-20T06:26:11;20.63;;;7.57;;
51810;SDS011;52468;40.116;18.296;2022-11-20T06:28:41;21.37;;;7.13;;
51810;SDS011;52468;40.116;18.296;2022-11-20T06:31:10;20.13;;;6.60;;
51810;SDS011;52468;40.116;18.296;2022-11-20T06:33:39;16.80;;;5.80;;
51810;SDS011;52468;40.116;18.296;2022-11-20T06:36:09;32.53;;;8.30;;
51810;SDS011;52468;40.116;18.296;2022-11-20T06:38:39;9.63;;;6.30;;
51810;SDS011;52468;40.116;18.296;2022-11-20T06:41:08;19.53;;;7.10;;
51810;SDS011;52468;40.116;18.296;2022-11-20T06:43:40;11.75;;;5.60;;
51810;SDS011;52468;40.116;18.296;2022-11-20T06:46:08;15.73;;;7.97;;
51810;SDS011;52468;40.116;18.296;2022-11-20T06:48:37;11.77;;;5.00;;
51810;SDS011;52468;40.116;18.296;2022-11-20T06:51:07;15.63;;;4.87;;
51810;SDS011;52468;40.116;18.296;2022-11-20T06:53:35;12.47;;;6.03;;
51810;SDS011;52468;40.116;18.296;2022-11-20T06:56:03;16.50;;;4.97;;
51810;SDS011;52468;40.116;18.296;2022-11-20T06:58:32;15.87;;;4.60;;
51810;SDS011;52468;40.116;18.296;2022-11-20T07:01:05;10.60;;;4.60;;
51810;SDS011;52468;40.116;18.296;2022-11-20T07:03:38;11.30;;;6.07;;
51810;SDS011;52468;40.116;18.296;2022-11-20T07:06:07;14.70;;;7.10;;
51810;SDS011;52468;40.116;18.296;2022-11-20T07:08:35;14.10;;;5.70;;
51810;SDS011;52468;40.116;18.296;2022-11-20T07:11:05;12.37;;;5.83;;
51810;SDS011;52468;40.116;18.296;2022-11-20T07:13:34;14.87;;;5.97;;
51810;SDS011;52468;40.116;18.296;2022-11-20T07:16:02;20.80;;;7.40;;
51810;SDS011;52468;40.116;18.296;2022-11-20T07:18:32;16.90;;;7.03;;
51810;SDS011;52468;40.116;18.296;2022-11-20T07:21:03;19.33;;;6.77;;
51810;SDS011;52468;40.116;18.296;2022-11-20T07:23:34;13.47;;;5.90;;
51810;SDS011;52468;40.116;18.296;2022-11-20T07:26:02;11.10;;;5.27;;
51810;SDS011;52468;40.116;18.296;2022-11-20T07:28:32;13.30;;;5.87;;
51810;SDS011;52468;40.116;18.296;2022-11-20T07:31:00;10.90;;;5.07;;
51810;SDS011;52468;40.116;18.296;2022-11-20T07:33:29;11.17;;;5.30;;
51810;SDS011;52468;40.116;18.296;2022-11-20T07:36:00;15.10;;;5.27;;
51810;SDS011;52468;40.116;18.296;2022-11-20T07:38:28;8.53;;;5.63;;
51810;SDS011;52468;40.116;18.296;2022-11-20T07:40:56;23.53;;;6.13;;
51810;SDS011;52468;40.116;18.296;2022-11-20T07:43:25;11.00;;;5.33;;
51810;SDS011;52468;40.116;18.296;2022-11-20T07:45:56;10.20;;;4.27;;
51810;SDS011;52468;40.116;18.296;2022-11-20T07:48:25;10.83;;;5.50;;
51810;SDS011;52468;40.116;18.296;2022-11-20T07:50:53;13.53;;;5.57;;
51810;SDS011;52468;40.116;18.296;2022-11-20T07:53:24;16.00;;;5.07;;
51810;SDS011;52468;40.116;18.296;2022-11-20T07:55:52;19.40;;;6.50;;
51810;SDS011;52468;40.116;18.296;2022-11-20T07:58:20;15.90;;;6.60;;
51810;SDS011;52468;40.116;18.296;2022-11-20T08:00:48;11.20;;;5.30;;
51810;SDS011;52468;40.116;18.296;2022-11-20T08:03:16;10.13;;;5.13;;
51810;SDS011;52468;40.116;18.296;2022-11-20T08:05:47;8.03;;;5.00;;
51810;SDS011;52468;40.116;18.296;2022-11-20T08:08:15;8.97;;;4.73;;
51810;SDS011;52468;40.116;18.296;2022-11-20T08:10:43;10.00;;;4.70;;
51810;SDS011;52468;40.116;18.296;2022-11-20T08:13:11;12.47;;;5.00;;
51810;SDS011;52468;40.116;18.296;2022-11-20T08:15:57;11.77;;;5.00;;
51810;SDS011;52468;40.116;18.296;2022-11-20T08:18:26;9.93;;;5.93;;
51810;SDS011;52468;40.116;18.296;2022-11-20T08:21:01;12.98;;;5.88;;
51810;SDS011;52468;40.116;18.296;2022-11-20T08:23:30;11.50;;;6.15;;
51810;SDS011;52468;40.116;18.296;2022-11-20T08:25:58;15.60;;;5.20;;
51810;SDS011;52468;40.116;18.296;2022-11-20T08:28:26;11.10;;;4.30;;
51810;SDS011;52468;40.116;18.296;2022-11-20T08:30:57;11.17;;;4.50;;
51810;SDS011;52468;40.116;18.296;2022-11-20T08:33:27;13.68;;;4.55;;
51810;SDS011;52468;40.116;18.296;2022-11-20T08:36:02;12.40;;;5.63;;
51810;SDS011;52468;40.116;18.296;2022-11-20T08:38:31;20.40;;;5.13;;
51810;SDS011;52468;40.116;18.296;2022-11-20T08:41:00;10.30;;;5.30;;
51810;SDS011;52468;40.116;18.296;2022-11-20T08:43:48;10.03;;;4.67;;
51810;SDS011;52468;40.116;18.296;2022-11-20T08:46:17;13.13;;;5.33;;
51810;SDS011;52468;40.116;18.296;2022-11-20T08:48:44;6.03;;;4.17;;
51810;SDS011;52468;40.116;18.296;2022-11-20T08:51:12;13.57;;;4.27;;
51810;SDS011;52468;40.116;18.296;2022-11-20T08:53:40;11.90;;;4.57;;
51810;SDS011;52468;40.116;18.296;2022-11-20T08:56:08;10.33;;;5.37;;
51810;SDS011;52468;40.116;18.296;2022-11-20T08:58:37;9.07;;;4.37;;
51810;SDS011;52468;40.116;18.296;2022-11-20T09:01:21;9.53;;;4.67;;
51810;SDS011;52468;40.116;18.296;2022-11-20T09:03:50;9.43;;;4.63;;
51810;SDS011;52468;40.116;18.296;2022-11-20T09:06:18;8.07;;;3.47;;
51810;SDS011;52468;40.116;18.296;2022-11-20T09:08:46;10.70;;;4.07;;
51810;SDS011;52468;40.116;18.296;2022-11-20T09:11:14;12.30;;;3.40;;
51810;SDS011;52468;40.116;18.296;2022-11-20T09:13:42;7.03;;;3.43;;
51810;SDS011;52468;40.116;18.296;2022-11-20T09:16:10;12.87;;;4.40;;
51810;SDS011;52468;40.116;18.296;2022-11-20T09:18:38;7.87;;;4.37;;
51810;SDS011;52468;40.116;18.296;2022-11-20T09:21:10;11.73;;;3.90;;
51810;SDS011;52468;40.116;18.296;2022-11-20T09:26:09;7.77;;;4.23;;
51810;SDS011;52468;40.116;18.296;2022-11-20T09:28:38;10.57;;;2.97;;
51810;SDS011;52468;40.116;18.296;2022-11-20T09:31:07;11.40;;;3.67;;
51810;SDS011;52468;40.116;18.296;2022-11-20T09:33:36;5.97;;;2.60;;
51810;SDS011;52468;40.116;18.296;2022-11-20T09:36:04;6.53;;;2.37;;
51810;SDS011;52468;40.116;18.296;2022-11-20T09:38:32;6.77;;;2.20;;
51810;SDS011;52468;40.116;18.296;2022-11-20T09:41:02;8.73;;;3.40;;
51810;SDS011;52468;40.116;18.296;2022-11-20T09:46:14;4.47;;;2.90;;
51810;SDS011;52468;40.116;18.296;2022-11-20T09:49:06;5.90;;;2.20;;
51810;SDS011;52468;40.116;18.296;2022-11-20T09:52:00;7.70;;;3.67;;
51810;SDS011;52468;40.116;18.296;2022-11-20T09:54:38;6.97;;;2.77;;
51810;SDS011;52468;40.116;18.296;2022-11-20T09:57:11;3.93;;;1.63;;
51810;SDS011;52468;40.116;18.296;2022-11-20T09:59:46;4.70;;;1.73;;
51810;SDS011;52468;40.116;18.296;2022-11-20T10:05:02;7.27;;;2.90;;
51810;SDS011;52468;40.116;18.296;2022-11-20T10:07:38;6.80;;;2.30;;
51810;SDS011;52468;40.116;18.296;2022-11-20T10:10:15;2.17;;;1.30;;
51810;SDS011;52468;40.116;18.296;2022-11-20T10:15:34;4.30;;;1.50;;
51810;SDS011;52468;40.116;18.296;2022-11-20T10:18:19;5.63;;;1.87;;
51810;SDS011;52468;40.116;18.296;2022-11-20T10:27:33;3.40;;;1.83;;
51810;SDS011;52468;40.116;18.296;2022-11-20T10:32:39;8.18;;;2.00;;
51810;SDS011;52468;40.116;18.296;2022-11-20T10:35:18;5.80;;;1.80;;
51810;SDS011;52468;40.116;18.296;2022-11-20T10:38:30;6.30;;;1.57;;
51810;SDS011;52468;40.116;18.296;2022-11-20T10:41:04;9.03;;;2.57;;
51810;SDS011;52468;40.116;18.296;2022-11-20T10:43:53;6.40;;;1.93;;
51810;SDS011;52468;40.116;18.296;2022-11-20T10:46:24;6.05;;;2.33;;
51810;SDS011;52468;40.116;18.296;2022-11-20T10:48:52;4.70;;;3.53;;
51810;SDS011;52468;40.116;18.296;2022-11-20T10:56:42;5.47;;;2.67;;
51810;SDS011;52468;40.116;18.296;2022-11-20T11:01:58;8.33;;;2.40;;
51810;SDS011;52468;40.116;18.296;2022-11-20T11:04:43;6.10;;;3.40;;
51810;SDS011;52468;40.116;18.296;2022-11-20T11:07:21;5.03;;;2.00;;
51810;SDS011;52468;40.116;18.296;2022-11-20T11:09:56;4.27;;;2.50;;
51810;SDS011;52468;40.116;18.296;2022-11-20T11:12:25;4.33;;;2.30;;
51810;SDS011;52468;40.116;18.296;2022-11-20T11:14:56;7.40;;;2.60;;
51810;SDS011;52468;40.116;18.296;2022-11-20T11:17:28;6.20;;;2.10;;
51810;SDS011;52468;40.116;18.296;2022-11-20T11:20:06;6.53;;;2.83;;
51810;SDS011;52468;40.116;18.296;2022-11-20T11:22:47;8.77;;;2.63;;
51810;SDS011;52468;40.116;18.296;2022-11-20T11:25:22;8.13;;;2.20;;
51810;SDS011;52468;40.116;18.296;2022-11-20T11:27:58;7.97;;;2.70;;
51810;SDS011;52468;40.116;18.296;2022-11-20T11:30:28;6.13;;;2.07;;
51810;SDS011;52468;40.116;18.296;2022-11-20T11:33:32;6.90;;;2.70;;
51810;SDS011;52468;40.116;18.296;2022-11-20T11:41:04;9.97;;;2.47;;
51810;SDS011;52468;40.116;18.296;2022-11-20T11:43:34;9.77;;;2.40;;
51810;SDS011;52468;40.116;18.296;2022-11-20T11:46:34;6.83;;;2.30;;
51810;SDS011;52468;40.116;18.296;2022-11-20T11:54:24;7.50;;;2.37;;
51810;SDS011;52468;40.116;18.296;2022-11-20T12:00:16;5.50;;;3.73;;
51810;SDS011;52468;40.116;18.296;2022-11-20T12:05:25;7.47;;;3.33;;
51810;SDS011;52468;40.116;18.296;2022-11-20T12:10:53;5.20;;;3.33;;
51810;SDS011;52468;40.116;18.296;2022-11-20T12:16:02;6.37;;;2.50;;
51810;SDS011;52468;40.116;18.296;2022-11-20T12:18:31;5.37;;;2.67;;
51810;SDS011;52468;40.116;18.296;2022-11-20T12:21:06;9.73;;;3.53;;
51810;SDS011;52468;40.116;18.296;2022-11-20T12:37:41;6.27;;;3.40;;
51810;SDS011;52468;40.116;18.296;2022-11-20T12:43:27;14.43;;;3.43;;
51810;SDS011;52468;40.116;18.296;2022-11-20T12:46:20;4.80;;;2.87;;
51810;SDS011;52468;40.116;18.296;2022-11-20T13:00:08;1.43;;;0.97;;
51810;SDS011;52468;40.116;18.296;2022-11-20T13:02:52;2.80;;;1.37;;
51810;SDS011;52468;40.116;18.296;2022-11-20T13:08:22;1.40;;;1.30;;
51810;SDS011;52468;40.116;18.296;2022-11-20T13:19:05;7.50;;;2.33;;
51810;SDS011;52468;40.116;18.296;2022-11-20T13:21:39;4.60;;;2.23;;
51810;SDS011;52468;40.116;18.296;2022-11-20T13:26:47;6.37;;;2.63;;
51810;SDS011;52468;40.116;18.296;2022-11-20T13:29:18;8.20;;;2.50;;
51810;SDS011;52468;40.116;18.296;2022-11-20T13:31:47;6.30;;;1.87;;
51810;SDS011;52468;40.116;18.296;2022-11-20T13:34:25;1.93;;;1.53;;
51810;SDS011;52468;40.116;18.296;2022-11-20T13:36:55;4.23;;;1.70;;
51810;SDS011;52468;40.116;18.296;2022-11-20T13:39:29;4.77;;;1.93;;
51810;SDS011;52468;40.116;18.296;2022-11-20T13:42:20;2.83;;;2.47;;
51810;SDS011;52468;40.116;18.296;2022-11-20T13:44:55;6.67;;;3.40;;
51810;SDS011;52468;40.116;18.296;2022-11-20T13:47:30;5.57;;;2.53;;
51810;SDS011;52468;40.116;18.296;2022-11-20T13:49:58;9.03;;;3.80;;
51810;SDS011;52468;40.116;18.296;2022-11-20T13:52:41;5.20;;;3.43;;
51810;SDS011;52468;40.116;18.296;2022-11-20T14:01:16;7.40;;;2.47;;
51810;SDS011;52468;40.116;18.296;2022-11-20T14:03:48;7.73;;;2.80;;
51810;SDS011;52468;40.116;18.296;2022-11-20T14:06:31;4.30;;;2.70;;
51810;SDS011;52468;40.116;18.296;2022-11-20T14:09:10;4.23;;;1.90;;
51810;SDS011;52468;40.116;18.296;2022-11-20T14:11:46;7.30;;;2.30;;
51810;SDS011;52468;40.116;18.296;2022-11-20T14:16:48;13.38;;;3.92;;
51810;SDS011;52468;40.116;18.296;2022-11-20T14:21:53;9.67;;;2.80;;
51810;SDS011;52468;40.116;18.296;2022-11-20T14:24:33;7.83;;;3.07;;
51810;SDS011;52468;40.116;18.296;2022-11-20T14:27:02;8.63;;;2.93;;
51810;SDS011;52468;40.116;18.296;2022-11-20T14:29:33;14.87;;;3.27;;
51810;SDS011;52468;40.116;18.296;2022-11-20T14:32:04;9.93;;;3.80;;
51810;SDS011;52468;40.116;18.296;2022-11-20T14:34:32;5.77;;;2.50;;
51810;SDS011;52468;40.116;18.296;2022-11-20T14:37:05;13.68;;;5.55;;
51810;SDS011;52468;40.116;18.296;2022-11-20T14:39:42;17.87;;;6.50;;
51810;SDS011;52468;40.116;18.296;2022-11-20T14:42:16;4.77;;;3.27;;
51810;SDS011;52468;40.116;18.296;2022-11-20T14:44:55;5.37;;;1.80;;
51810;SDS011;52468;40.116;18.296;2022-11-20T14:47:30;5.40;;;1.50;;
51810;SDS011;52468;40.116;18.296;2022-11-20T14:49:58;2.73;;;1.73;;
51810;SDS011;52468;40.116;18.296;2022-11-20T14:52:30;55.97;;;33.83;;
51810;SDS011;52468;40.116;18.296;2022-11-20T14:54:58;16.50;;;9.03;;
51810;SDS011;52468;40.116;18.296;2022-11-20T14:57:30;18.57;;;8.43;;
51810;SDS011;52468;40.116;18.296;2022-11-20T15:02:43;4.43;;;3.07;;
51810;SDS011;52468;40.116;18.296;2022-11-20T15:05:13;18.65;;;10.73;;
51810;SDS011;52468;40.116;18.296;2022-11-20T15:07:43;5.77;;;2.87;;
51810;SDS011;52468;40.116;18.296;2022-11-20T15:17:58;11.00;;;4.70;;
51810;SDS011;52468;40.116;18.296;2022-11-20T15:20:27;10.67;;;4.93;;
51810;SDS011;52468;40.116;18.296;2022-11-20T15:22:58;12.20;;;6.80;;
51810;SDS011;52468;40.116;18.296;2022-11-20T15:25:26;5.40;;;3.03;;
51810;SDS011;52468;40.116;18.296;2022-11-20T15:27:55;20.17;;;12.17;;
51810;SDS011;52468;40.116;18.296;2022-11-20T15:30:23;10.73;;;5.10;;
51810;SDS011;52468;40.116;18.296;2022-11-20T15:32:52;6.67;;;5.50;;
51810;SDS011;52468;40.116;18.296;2022-11-20T15:35:19;12.13;;;3.27;;
51810;SDS011;52468;40.116;18.296;2022-11-20T15:37:47;8.00;;;2.40;;
51810;SDS011;52468;40.116;18.296;2022-11-20T15:40:15;11.37;;;3.50;;
51810;SDS011;52468;40.116;18.296;2022-11-20T15:42:43;6.87;;;2.47;;
51810;SDS011;52468;40.116;18.296;2022-11-20T15:45:41;5.67;;;2.50;;
51810;SDS011;52468;40.116;18.296;2022-11-20T15:48:16;6.27;;;3.53;;
51810;SDS011;52468;40.116;18.296;2022-11-20T15:50:51;12.10;;;3.80;;
51810;SDS011;52468;40.116;18.296;2022-11-20T15:53:38;11.70;;;6.07;;
51810;SDS011;52468;40.116;18.296;2022-11-20T15:56:11;7.30;;;4.03;;
51810;SDS011;52468;40.116;18.296;2022-11-20T15:58:40;24.20;;;5.47;;
51810;SDS011;52468;40.116;18.296;2022-11-20T16:01:13;7.93;;;5.93;;
51810;SDS011;52468;40.116;18.296;2022-11-20T16:03:42;13.88;;;6.18;;
51810;SDS011;52468;40.116;18.296;2022-11-20T16:06:10;11.87;;;4.87;;
51810;SDS011;52468;40.116;18.296;2022-11-20T16:08:38;12.97;;;7.83;;
51810;SDS011;52468;40.116;18.296;2022-11-20T16:11:06;15.93;;;8.50;;
51810;SDS011;52468;40.116;18.296;2022-11-20T16:13:37;10.73;;;6.37;;
51810;SDS011;52468;40.116;18.296;2022-11-20T16:16:28;14.73;;;10.03;;
51810;SDS011;52468;40.116;18.296;2022-11-20T16:19:01;53.80;;;34.60;;
51810;SDS011;52468;40.116;18.296;2022-11-20T16:21:30;15.33;;;10.30;;
51810;SDS011;52468;40.116;18.296;2022-11-20T16:23:58;13.63;;;7.30;;
51810;SDS011;52468;40.116;18.296;2022-11-20T16:26:27;16.80;;;8.03;;
51810;SDS011;52468;40.116;18.296;2022-11-20T16:28:56;12.20;;;7.10;;
51810;SDS011;52468;40.116;18.296;2022-11-20T16:31:26;16.77;;;7.90;;
51810;SDS011;52468;40.116;18.296;2022-11-20T16:33:55;13.87;;;8.50;;
51810;SDS011;52468;40.116;18.296;2022-11-20T16:36:26;17.70;;;11.07;;
51810;SDS011;52468;40.116;18.296;2022-11-20T16:38:56;20.67;;;11.73;;
51810;SDS011;52468;40.116;18.296;2022-11-20T16:41:25;19.67;;;10.50;;
51810;SDS011;52468;40.116;18.296;2022-11-20T16:43:55;15.10;;;8.73;;
51810;SDS011;52468;40.116;18.296;2022-11-20T16:46:25;14.40;;;9.10;;
51810;SDS011;52468;40.116;18.296;2022-11-20T16:49:02;25.93;;;9.07;;
51810;SDS011;52468;40.116;18.296;2022-11-20T16:51:35;21.43;;;8.93;;
51810;SDS011;52468;40.116;18.296;2022-11-20T16:54:03;17.40;;;7.97;;
51810;SDS011;52468;40.116;18.296;2022-11-20T16:56:33;19.77;;;8.53;;
51810;SDS011;52468;40.116;18.296;2022-11-20T16:59:01;24.20;;;14.17;;
51810;SDS011;52468;40.116;18.296;2022-11-20T17:01:29;17.87;;;10.67;;
51810;SDS011;52468;40.116;18.296;2022-11-20T17:03:59;26.00;;;11.00;;
51810;SDS011;52468;40.116;18.296;2022-11-20T17:06:32;11.45;;;7.03;;
51810;SDS011;52468;40.116;18.296;2022-11-20T17:09:02;16.20;;;6.73;;
51810;SDS011;52468;40.116;18.296;2022-11-20T17:11:30;16.27;;;6.17;;
51810;SDS011;52468;40.116;18.296;2022-11-20T17:13:59;16.80;;;7.83;;
51810;SDS011;52468;40.116;18.296;2022-11-20T17:16:32;18.20;;;7.17;;
51810;SDS011;52468;40.116;18.296;2022-11-20T17:19:00;18.33;;;8.50;;
51810;SDS011;52468;40.116;18.296;2022-11-20T17:21:30;21.93;;;11.83;;
51810;SDS011;52468;40.116;18.296;2022-11-20T17:24:00;17.73;;;8.07;;
51810;SDS011;52468;40.116;18.296;2022-11-20T17:26:29;10.40;;;7.27;;
51810;SDS011;52468;40.116;18.296;2022-11-20T17:28:59;14.80;;;9.57;;
51810;SDS011;52468;40.116;18.296;2022-11-20T17:31:28;16.40;;;8.10;;
51810;SDS011;52468;40.116;18.296;2022-11-20T17:33:56;16.43;;;7.90;;
51810;SDS011;52468;40.116;18.296;2022-11-20T17:36:26;20.47;;;8.70;;
51810;SDS011;52468;40.116;18.296;2022-11-20T17:38:56;22.63;;;10.60;;
51810;SDS011;52468;40.116;18.296;2022-11-20T17:41:25;22.13;;;11.03;;
51810;SDS011;52468;40.116;18.296;2022-11-20T17:43:55;19.30;;;9.73;;
51810;SDS011;52468;40.116;18.296;2022-11-20T17:46:25;18.53;;;8.30;;
51810;SDS011;52468;40.116;18.296;2022-11-20T17:48:55;22.23;;;9.13;;
51810;SDS011;52468;40.116;18.296;2022-11-20T17:51:25;18.17;;;8.30;;
51810;SDS011;52468;40.116;18.296;2022-11-20T17:53:57;13.27;;;6.13;;
51810;SDS011;52468;40.116;18.296;2022-11-20T17:56:30;11.83;;;6.37;;
51810;SDS011;52468;40.116;18.296;2022-11-20T17:59:18;13.23;;;6.37;;
51810;SDS011;52468;40.116;18.296;2022-11-20T18:01:46;19.23;;;8.43;;
51810;SDS011;52468;40.116;18.296;2022-11-20T18:04:14;17.27;;;7.57;;
51810;SDS011;52468;40.116;18.296;2022-11-20T18:06:43;21.00;;;11.20;;
51810;SDS011;52468;40.116;18.296;2022-11-20T18:09:11;19.30;;;7.00;;
51810;SDS011;52468;40.116;18.296;2022-11-20T18:11:40;16.80;;;5.40;;
51810;SDS011;52468;40.116;18.296;2022-11-20T18:14:13;13.47;;;5.50;;
51810;SDS011;52468;40.116;18.296;2022-11-20T18:17:10;14.87;;;7.10;;
51810;SDS011;52468;40.116;18.296;2022-11-20T18:19:39;16.10;;;7.50;;
51810;SDS011;52468;40.116;18.296;2022-11-20T18:22:18;15.17;;;7.17;;
51810;SDS011;52468;40.116;18.296;2022-11-20T18:24:46;18.73;;;8.43;;
51810;SDS011;52468;40.116;18.296;2022-11-20T18:27:15;13.10;;;8.93;;